sensor_id;sensor_type;location;lat;lon;timestamp;pressure;altitude;pressure_sealevel;temperature;humidity
9035;BME280;4552;43.422;24.592;2023-03-29T03:08:06;100435.91;;;1.16;87.82
9035;BME280;4552;43.422;24.592;2023-03-29T03:10:33;100410.56;;;1.03;87.48
9035;BME280;4552;43.422;24.592;2023-03-29T03:13:00;100437.31;;;1.33;87.10
9035;BME280;4552;43.422;24.592;2023-03-29T03:15:27;100431.94;;;1.27;86.83
9035;BME280;4552;43.422;24.592;2023-03-29T03:18:00;100429.63;;;1.08;87.53
9035;BME280;4552;43.422;24.592;2023-03-29T03:20:28;100433.03;;;1.07;88.13
9035;BME280;4552;43.422;24.592;2023-03-29T03:22:55;100446.25;;;1.17;87.67
9035;BME280;4552;43.422;24.592;2023-03-29T03:25:24;100452.16;;;1.15;87.87
9035;BME280;4552;43.422;24.592;2023-03-29T03:27:52;100445.47;;;1.20;88.03
9035;BME280;4552;43.422;24.592;2023-03-29T03:30:19;100443.25;;;1.04;88.10
9035;BME280;4552;43.422;24.592;2023-03-29T03:32:46;100457.22;;;1.12;87.45
9035;BME280;4552;43.422;24.592;2023-03-29T03:35:14;100449.19;;;1.03;87.57
9035;BME280;4552;43.422;24.592;2023-03-29T03:37:41;100443.72;;;0.92;88.19
9035;BME280;4552;43.422;24.592;2023-03-29T03:40:10;100451.78;;;1.03;88.42
9035;BME280;4552;43.422;24.592;2023-03-29T04:25:01;100496.63;;;1.08;85.59
9035;BME280;4552;43.422;24.592;2023-03-29T04:27:28;100494.00;;;1.06;85.44
9035;BME280;4552;43.422;24.592;2023-03-29T04:29:56;100484.97;;;1.19;85.17
9035;BME280;4552;43.422;24.592;2023-03-29T04:32:23;100490.50;;;1.31;84.41
9035;BME280;4552;43.422;24.592;2023-03-29T04:34:50;100487.09;;;1.32;83.77
9035;BME280;4552;43.422;24.592;2023-03-29T04:37:17;100480.72;;;1.47;83.25
9035;BME280;4552;43.422;24.592;2023-03-29T04:39:47;100486.78;;;1.77;81.99
9035;BME280;4552;43.422;24.592;2023-03-29T04:42:15;100474.69;;;1.75;81.18
9035;BME280;4552;43.422;24.592;2023-03-29T04:44:43;100495.97;;;1.96;80.43
9035;BME280;4552;43.422;24.592;2023-03-29T04:47:10;100490.78;;;1.96;78.92
9035;BME280;4552;43.422;24.592;2023-03-29T04:49:39;100491.63;;;1.95;78.27
9035;BME280;4552;43.422;24.592;2023-03-29T04:52:06;100504.00;;;2.07;77.90
9035;BME280;4552;43.422;24.592;2023-03-29T04:54:34;100504.81;;;2.04;77.41
9035;BME280;4552;43.422;24.592;2023-03-29T04:57:01;100508.53;;;2.14;77.79
9035;BME280;4552;43.422;24.592;2023-03-29T04:59:30;100506.47;;;2.32;77.14
9035;BME280;4552;43.422;24.592;2023-03-29T05:01:57;100508.19;;;2.62;75.36
9035;BME280;4552;43.422;24.592;2023-03-29T05:04:25;100516.50;;;2.83;73.58
9035;BME280;4552;43.422;24.592;2023-03-29T05:06:52;100514.28;;;3.31;71.67
9035;BME280;4552;43.422;24.592;2023-03-29T05:09:19;100520.81;;;3.88;69.06
9035;BME280;4552;43.422;24.592;2023-03-29T05:11:47;100510.00;;;3.69;68.03
9035;BME280;4552;43.422;24.592;2023-03-29T05:14:14;100503.38;;;3.81;66.73
9035;BME280;4552;43.422;24.592;2023-03-29T05:16:43;100507.53;;;3.36;68.73
9035;BME280;4552;43.422;24.592;2023-03-29T05:19:10;100523.06;;;3.37;68.96
9035;BME280;4552;43.422;24.592;2023-03-29T05:21:37;100510.56;;;2.87;69.48
9035;BME280;4552;43.422;24.592;2023-03-29T05:31:49;100510.19;;;3.05;68.86
9035;BME280;4552;43.422;24.592;2023-03-29T05:34:17;100510.97;;;3.02;67.60
9035;BME280;4552;43.422;24.592;2023-03-29T05:36:44;100517.44;;;3.19;66.96
9035;BME280;4552;43.422;24.592;2023-03-29T05:39:11;100514.38;;;3.35;65.90
9035;BME280;4552;43.422;24.592;2023-03-29T05:41:38;100524.25;;;3.51;64.74
9035;BME280;4552;43.422;24.592;2023-03-29T05:44:06;100520.06;;;3.56;64.28
9035;BME280;4552;43.422;24.592;2023-03-29T05:46:33;100522.59;;;3.53;63.55
9035;BME280;4552;43.422;24.592;2023-03-29T05:49:01;100521.53;;;3.45;62.93
9035;BME280;4552;43.422;24.592;2023-03-29T05:51:28;100525.03;;;3.47;62.52
9035;BME280;4552;43.422;24.592;2023-03-29T05:53:57;100523.09;;;3.76;61.99
9035;BME280;4552;43.422;24.592;2023-03-29T05:56:24;100516.25;;;3.78;61.30
9035;BME280;4552;43.422;24.592;2023-03-29T05:58:52;100530.03;;;3.76;59.96
9035;BME280;4552;43.422;24.592;2023-03-29T06:01:20;100552.41;;;3.74;60.12
9035;BME280;4552;43.422;24.592;2023-03-29T06:03:49;100545.47;;;3.73;59.96
9035;BME280;4552;43.422;24.592;2023-03-29T06:06:17;100537.84;;;3.79;58.83
9035;BME280;4552;43.422;24.592;2023-03-29T06:08:46;100545.63;;;3.79;58.82
9035;BME280;4552;43.422;24.592;2023-03-29T06:11:13;100555.44;;;3.93;58.85
9035;BME280;4552;43.422;24.592;2023-03-29T06:13:41;100552.81;;;3.92;58.08
9035;BME280;4552;43.422;24.592;2023-03-29T06:16:09;100543.38;;;3.94;57.76
9035;BME280;4552;43.422;24.592;2023-03-29T06:18:37;100555.25;;;3.86;57.75
9035;BME280;4552;43.422;24.592;2023-03-29T06:21:05;100546.56;;;4.21;58.30
9035;BME280;4552;43.422;24.592;2023-03-29T06:23:35;100555.34;;;4.27;56.14
9035;BME280;4552;43.422;24.592;2023-03-29T06:26:03;100553.50;;;4.22;56.46
9035;BME280;4552;43.422;24.592;2023-03-29T06:28:30;100553.28;;;4.13;56.51
9035;BME280;4552;43.422;24.592;2023-03-29T08:04:01;100595.56;;;5.89;46.04
9035;BME280;4552;43.422;24.592;2023-03-29T08:06:29;100589.47;;;5.85;46.07
9035;BME280;4552;43.422;24.592;2023-03-29T08:08:56;100582.97;;;6.13;46.38
9035;BME280;4552;43.422;24.592;2023-03-29T08:11:23;100579.56;;;6.18;45.27
9035;BME280;4552;43.422;24.592;2023-03-29T08:13:50;100594.81;;;5.94;45.39
9035;BME280;4552;43.422;24.592;2023-03-29T08:16:17;100606.28;;;5.58;45.87
9035;BME280;4552;43.422;24.592;2023-03-29T08:18:45;100588.41;;;5.76;46.42
9035;BME280;4552;43.422;24.592;2023-03-29T08:21:13;100599.13;;;5.95;45.79
9035;BME280;4552;43.422;24.592;2023-03-29T08:23:40;100577.94;;;5.71;44.57
9035;BME280;4552;43.422;24.592;2023-03-29T08:26:07;100570.28;;;5.80;43.36
9035;BME280;4552;43.422;24.592;2023-03-29T08:28:34;100597.25;;;5.84;46.19
9035;BME280;4552;43.422;24.592;2023-03-29T08:31:01;100569.06;;;5.57;45.76
9035;BME280;4552;43.422;24.592;2023-03-29T08:33:28;100590.59;;;5.52;45.83
9035;BME280;4552;43.422;24.592;2023-03-29T08:35:55;100589.16;;;5.70;44.56
9035;BME280;4552;43.422;24.592;2023-03-29T08:38:24;100562.06;;;6.07;44.49
9035;BME280;4552;43.422;24.592;2023-03-29T08:40:52;100574.44;;;6.24;44.74
9035;BME280;4552;43.422;24.592;2023-03-29T08:43:34;100565.81;;;6.28;44.38
9035;BME280;4552;43.422;24.592;2023-03-29T08:46:12;100577.63;;;6.05;45.17
9035;BME280;4552;43.422;24.592;2023-03-29T08:48:44;100573.69;;;5.76;44.70
9035;BME280;4552;43.422;24.592;2023-03-29T08:51:18;100572.59;;;6.14;45.37
9035;BME280;4552;43.422;24.592;2023-03-29T08:53:52;100570.13;;;6.23;44.77
9035;BME280;4552;43.422;24.592;2023-03-29T09:46:05;100586.91;;;6.46;44.10
9035;BME280;4552;43.422;24.592;2023-03-29T09:48:41;100577.47;;;6.56;44.35
9035;BME280;4552;43.422;24.592;2023-03-29T10:04:39;100542.53;;;7.09;41.88
9035;BME280;4552;43.422;24.592;2023-03-29T10:07:08;100555.91;;;7.48;41.69
9035;BME280;4552;43.422;24.592;2023-03-29T10:09:35;100571.25;;;7.18;41.33
9035;BME280;4552;43.422;24.592;2023-03-29T10:12:05;100540.09;;;7.27;41.17
9035;BME280;4552;43.422;24.592;2023-03-29T10:14:34;100548.00;;;7.38;40.86
9035;BME280;4552;43.422;24.592;2023-03-29T10:17:04;100564.28;;;7.17;40.42
9035;BME280;4552;43.422;24.592;2023-03-29T10:19:34;100567.56;;;6.96;41.21
9035;BME280;4552;43.422;24.592;2023-03-29T10:22:05;100518.16;;;6.99;38.82
9035;BME280;4552;43.422;24.592;2023-03-29T10:24:56;100540.16;;;7.33;39.90
9035;BME280;4552;43.422;24.592;2023-03-29T10:27:24;100546.16;;;7.28;41.35
9035;BME280;4552;43.422;24.592;2023-03-29T10:29:53;100560.97;;;7.30;41.87
9035;BME280;4552;43.422;24.592;2023-03-29T10:32:27;100546.59;;;7.76;39.44
9035;BME280;4552;43.422;24.592;2023-03-29T12:44:56;100417.56;;;8.82;35.08
9035;BME280;4552;43.422;24.592;2023-03-29T12:47:25;100436.72;;;8.99;34.83
9035;BME280;4552;43.422;24.592;2023-03-29T12:49:55;100420.16;;;9.10;35.11
9035;BME280;4552;43.422;24.592;2023-03-29T12:52:24;100406.22;;;9.05;34.09
9035;BME280;4552;43.422;24.592;2023-03-29T12:54:54;100392.31;;;9.15;34.72
9035;BME280;4552;43.422;24.592;2023-03-29T12:57:26;100398.41;;;9.37;34.03
9035;BME280;4552;43.422;24.592;2023-03-29T13:00:09;100413.19;;;8.94;34.38
9035;BME280;4552;43.422;24.592;2023-03-29T13:02:37;100378.41;;;8.74;34.31
9035;BME280;4552;43.422;24.592;2023-03-29T13:05:29;100380.13;;;9.05;33.99
9035;BME280;4552;43.422;24.592;2023-03-29T13:07:56;100378.34;;;9.37;34.67
9035;BME280;4552;43.422;24.592;2023-03-29T13:10:49;100392.28;;;9.36;34.38
9035;BME280;4552;43.422;24.592;2023-03-29T13:13:20;100392.31;;;9.12;34.32
9035;BME280;4552;43.422;24.592;2023-03-29T13:15:50;100383.59;;;9.13;34.07
9035;BME280;4552;43.422;24.592;2023-03-29T13:18:35;100387.09;;;8.94;34.10
9035;BME280;4552;43.422;24.592;2023-03-29T13:21:13;100387.09;;;8.85;33.24
9035;BME280;4552;43.422;24.592;2023-03-29T13:23:50;100379.25;;;8.80;33.93
9035;BME280;4552;43.422;24.592;2023-03-29T13:26:41;100383.63;;;8.92;33.86
9035;BME280;4552;43.422;24.592;2023-03-29T13:29:28;100385.34;;;8.99;33.62
9035;BME280;4552;43.422;24.592;2023-03-29T13:32:10;100380.13;;;9.16;33.83
9035;BME280;4552;43.422;24.592;2023-03-29T13:34:46;100393.19;;;8.96;33.82
9035;BME280;4552;43.422;24.592;2023-03-29T13:55:37;100370.56;;;8.94;33.58
9035;BME280;4552;43.422;24.592;2023-03-29T13:58:10;100340.97;;;8.95;33.47
9035;BME280;4552;43.422;24.592;2023-03-29T14:00:43;100366.19;;;8.97;32.61
9035;BME280;4552;43.422;24.592;2023-03-29T14:03:13;100360.13;;;8.94;33.83
9035;BME280;4552;43.422;24.592;2023-03-29T14:05:46;100359.25;;;9.02;33.35
9035;BME280;4552;43.422;24.592;2023-03-29T14:08:25;100337.50;;;8.93;32.44
9035;BME280;4552;43.422;24.592;2023-03-29T14:10:54;100360.97;;;8.94;33.08
9035;BME280;4552;43.422;24.592;2023-03-29T14:13:23;100366.22;;;9.03;32.70
9035;BME280;4552;43.422;24.592;2023-03-29T14:15:53;100362.72;;;9.15;32.09
9035;BME280;4552;43.422;24.592;2023-03-29T14:18:23;100311.38;;;9.09;30.36
9035;BME280;4552;43.422;24.592;2023-03-29T14:20:52;100300.94;;;9.11;30.62
9035;BME280;4552;43.422;24.592;2023-03-29T14:23:23;100307.00;;;9.13;30.75
9035;BME280;4552;43.422;24.592;2023-03-29T14:25:51;100293.09;;;9.15;29.34
9035;BME280;4552;43.422;24.592;2023-03-29T14:28:21;100303.56;;;9.03;30.48
9035;BME280;4552;43.422;24.592;2023-03-29T14:30:49;100326.16;;;9.12;31.18
9035;BME280;4552;43.422;24.592;2023-03-29T14:33:23;100323.50;;;9.28;31.61
9035;BME280;4552;43.422;24.592;2023-03-29T14:35:52;100329.59;;;9.32;30.42
9035;BME280;4552;43.422;24.592;2023-03-29T14:38:21;100298.28;;;9.30;30.48
9035;BME280;4552;43.422;24.592;2023-03-29T14:40:48;100314.00;;;9.12;30.89
9035;BME280;4552;43.422;24.592;2023-03-29T14:43:20;100312.22;;;9.14;30.61
9035;BME280;4552;43.422;24.592;2023-03-29T14:45:49;100309.59;;;9.23;29.80
9035;BME280;4552;43.422;24.592;2023-03-29T14:48:16;100291.28;;;9.28;30.47
9035;BME280;4552;43.422;24.592;2023-03-29T14:50:44;100290.44;;;9.29;30.05
9035;BME280;4552;43.422;24.592;2023-03-29T14:53:16;100298.25;;;9.36;30.07
9035;BME280;4552;43.422;24.592;2023-03-29T15:42:09;100325.31;;;8.82;31.02
9035;BME280;4552;43.422;24.592;2023-03-29T15:44:37;100340.09;;;8.91;30.71
9035;BME280;4552;43.422;24.592;2023-03-29T15:47:08;100333.16;;;8.93;30.74
9035;BME280;4552;43.422;24.592;2023-03-29T15:49:35;100342.72;;;9.03;30.53
9035;BME280;4552;43.422;24.592;2023-03-29T15:52:02;100334.88;;;8.91;30.58
9035;BME280;4552;43.422;24.592;2023-03-29T15:54:29;100340.09;;;8.88;30.89
9035;BME280;4552;43.422;24.592;2023-03-29T15:57:00;100334.03;;;8.95;30.44
9035;BME280;4552;43.422;24.592;2023-03-29T15:59:31;100308.78;;;8.77;29.78
9035;BME280;4552;43.422;24.592;2023-03-29T16:01:58;100314.88;;;8.81;30.18
9035;BME280;4552;43.422;24.592;2023-03-29T16:04:25;100307.94;;;8.83;30.17
9035;BME280;4552;43.422;24.592;2023-03-29T16:06:53;100319.22;;;8.94;30.01
9035;BME280;4552;43.422;24.592;2023-03-29T16:09:22;100324.44;;;8.85;30.12
9035;BME280;4552;43.422;24.592;2023-03-29T16:11:50;100321.00;;;8.80;30.07
9035;BME280;4552;43.422;24.592;2023-03-29T16:14:20;100303.59;;;8.58;30.01
9035;BME280;4552;43.422;24.592;2023-03-29T16:16:50;100315.78;;;8.68;30.38
9035;BME280;4552;43.422;24.592;2023-03-29T16:19:17;100328.81;;;8.77;30.02
9035;BME280;4552;43.422;24.592;2023-03-29T16:42:25;100367.94;;;8.59;31.06
9035;BME280;4552;43.422;24.592;2023-03-29T16:44:52;100367.91;;;8.48;30.58
9035;BME280;4552;43.422;24.592;2023-03-29T16:47:21;100374.00;;;8.49;30.44
9035;BME280;4552;43.422;24.592;2023-03-29T16:49:47;100380.09;;;8.48;30.82
9035;BME280;4552;43.422;24.592;2023-03-29T16:52:14;100380.09;;;8.42;30.71
9035;BME280;4552;43.422;24.592;2023-03-29T16:54:41;100367.03;;;8.34;31.06
9035;BME280;4552;43.422;24.592;2023-03-29T16:57:08;100386.16;;;8.39;31.19
9035;BME280;4552;43.422;24.592;2023-03-29T16:59:37;100393.13;;;8.39;31.44
9035;BME280;4552;43.422;24.592;2023-03-29T17:02:06;100390.38;;;8.09;31.75
9035;BME280;4552;43.422;24.592;2023-03-29T17:04:33;100414.75;;;8.15;31.89
9035;BME280;4552;43.422;24.592;2023-03-29T17:07:01;100418.25;;;8.19;31.88
9035;BME280;4552;43.422;24.592;2023-03-29T17:09:28;100412.91;;;7.98;32.57
9035;BME280;4552;43.422;24.592;2023-03-29T17:11:55;100426.03;;;8.07;32.22
9035;BME280;4552;43.422;24.592;2023-03-29T17:14:22;100429.47;;;8.04;32.34
9035;BME280;4552;43.422;24.592;2023-03-29T17:16:53;100425.13;;;8.05;32.52
9035;BME280;4552;43.422;24.592;2023-03-29T17:19:20;100442.44;;;7.94;32.85
9035;BME280;4552;43.422;24.592;2023-03-29T17:21:47;100461.53;;;7.88;33.07
9035;BME280;4552;43.422;24.592;2023-03-29T17:24:14;100461.38;;;7.66;33.61
9035;BME280;4552;43.422;24.592;2023-03-29T17:26:41;100486.53;;;7.56;34.13
9035;BME280;4552;43.422;24.592;2023-03-29T17:29:08;100480.44;;;7.56;34.16
9035;BME280;4552;43.422;24.592;2023-03-29T17:31:37;100492.53;;;7.48;34.33
9035;BME280;4552;43.422;24.592;2023-03-29T17:34:12;100505.53;;;7.48;34.69
9035;BME280;4552;43.422;24.592;2023-03-29T17:36:39;100518.50;;;7.39;34.91
9035;BME280;4552;43.422;24.592;2023-03-29T17:39:07;100537.38;;;7.14;35.84
9035;BME280;4552;43.422;24.592;2023-03-29T17:41:34;100542.56;;;7.11;35.81
9035;BME280;4552;43.422;24.592;2023-03-29T18:03:50;100670.03;;;5.88;41.57
9035;BME280;4552;43.422;24.592;2023-03-29T18:06:17;100642.38;;;5.92;40.70
9035;BME280;4552;43.422;24.592;2023-03-29T18:08:45;100639.78;;;5.93;40.70
9035;BME280;4552;43.422;24.592;2023-03-29T18:11:14;100632.84;;;5.92;40.25
9035;BME280;4552;43.422;24.592;2023-03-29T18:13:43;100640.69;;;5.95;40.44
9035;BME280;4552;43.422;24.592;2023-03-29T18:16:10;100645.94;;;5.98;40.38
9035;BME280;4552;43.422;24.592;2023-03-29T18:18:37;100616.94;;;5.74;40.44
9035;BME280;4552;43.422;24.592;2023-03-29T18:58:39;100655.81;;;5.70;42.75
9035;BME280;4552;43.422;24.592;2023-03-29T19:01:06;100651.38;;;5.64;43.06
9035;BME280;4552;43.422;24.592;2023-03-29T19:03:34;100676.03;;;5.41;45.20
9035;BME280;4552;43.422;24.592;2023-03-29T19:20:11;100627.47;;;5.32;42.41
9035;BME280;4552;43.422;24.592;2023-03-29T19:29:22;100659.25;;;5.21;44.80
9035;BME280;4552;43.422;24.592;2023-03-29T19:31:50;100658.19;;;5.11;45.11
9035;BME280;4552;43.422;24.592;2023-03-29T19:34:19;100647.16;;;5.23;43.91
9035;BME280;4552;43.422;24.592;2023-03-29T20:05:04;100659.34;;;4.44;44.15
9035;BME280;4552;43.422;24.592;2023-03-29T22:14:16;100658.72;;;4.17;46.11
9035;BME280;4552;43.422;24.592;2023-03-29T22:16:48;100655.13;;;4.12;45.97
9035;BME280;4552;43.422;24.592;2023-03-29T22:19:17;100644.84;;;4.15;45.70
9035;BME280;4552;43.422;24.592;2023-03-29T22:21:44;100646.69;;;4.19;45.27
9035;BME280;4552;43.422;24.592;2023-03-29T22:24:15;100646.53;;;4.13;45.78
9035;BME280;4552;43.422;24.592;2023-03-29T22:26:42;100655.28;;;4.18;46.42
9035;BME280;4552;43.422;24.592;2023-03-29T22:29:09;100636.09;;;4.10;46.70
9035;BME280;4552;43.422;24.592;2023-03-29T22:31:37;100657.72;;;4.12;47.26
9035;BME280;4552;43.422;24.592;2023-03-29T22:34:05;100660.47;;;3.84;48.14
9035;BME280;4552;43.422;24.592;2023-03-29T22:40:22;100661.06;;;3.39;50.12
9035;BME280;4552;43.422;24.592;2023-03-29T22:42:48;100652.94;;;3.26;50.75
9035;BME280;4552;43.422;24.592;2023-03-29T22:45:15;100650.75;;;3.08;51.22
9035;BME280;4552;43.422;24.592;2023-03-29T22:47:44;100652.94;;;2.93;51.58
9035;BME280;4552;43.422;24.592;2023-03-29T22:50:11;100665.66;;;2.87;52.03
9035;BME280;4552;43.422;24.592;2023-03-29T22:52:38;100659.88;;;2.96;51.87
9035;BME280;4552;43.422;24.592;2023-03-29T22:55:06;100663.25;;;2.93;51.88
9035;BME280;4552;43.422;24.592;2023-03-29T22:57:33;100647.13;;;3.02;51.88
9035;BME280;4552;43.422;24.592;2023-03-29T23:00:00;100643.59;;;3.00;51.86
9035;BME280;4552;43.422;24.592;2023-03-29T23:02:31;100655.50;;;2.93;52.41
9035;BME280;4552;43.422;24.592;2023-03-29T23:04:59;100632.47;;;2.71;52.74
9035;BME280;4552;43.422;24.592;2023-03-29T23:10:47;100655.31;;;2.87;52.94
9035;BME280;4552;43.422;24.592;2023-03-29T23:13:15;100651.91;;;2.88;53.21
9035;BME280;4552;43.422;24.592;2023-03-29T23:15:47;100652.13;;;2.96;52.80
9035;BME280;4552;43.422;24.592;2023-03-29T23:18:16;100655.28;;;3.17;52.33
9035;BME280;4552;43.422;24.592;2023-03-29T23:20:47;100642.28;;;3.14;52.04
9035;BME280;4552;43.422;24.592;2023-03-29T23:46:48;100653.81;;;2.95;54.02
9035;BME280;4552;43.422;24.592;2023-03-29T23:49:15;100652.94;;;2.93;53.90
9035;BME280;4552;43.422;24.592;2023-03-29T23:55:37;100652.81;;;2.61;55.43
9035;BME280;4552;43.422;24.592;2023-03-29T23:58:04;100651.59;;;2.48;56.01
